Time;durP1;ratioP1;P1;durP2;ratioP2;P2;SDS_P1;SDS_P2;PMS_P1;PMS_P2;Temp;Humidity;BMP_temperature;BMP_pressure;BME280_temperature;BME280_humidity;BME280_pressure;Samples;Min_cycle;Max_cycle;Signal;HPM_P1;HPM_P2
2023/05/11 00:01:39;;;;;;;4.80;3.67;;;;;;;;;;4973578;28;20059;-86
2023/05/11 00:04:06;;;;;;;3.67;3.47;;;;;;;;;;4974446;28;20051;-86
2023/05/11 00:06:34;;;;;;;4.20;3.80;;;;;;;;;;4974336;28;20098;-87
2023/05/11 00:09:01;;;;;;;6.20;4.10;;;;;;;;;;4974710;28;20476;-86
2023/05/11 00:11:28;;;;;;;7.05;4.38;;;;;;;;;;4973508;28;20137;-86
2023/05/11 00:13:55;;;;;;;5.13;3.95;;;;;;;;;;4973788;28;20043;-86
2023/05/11 00:16:23;;;;;;;5.25;4.13;;;;;;;;;;4973720;28;20412;-87
2023/05/11 00:18:50;;;;;;;5.35;4.05;;;;;;;;;;4974348;28;20484;-86
2023/05/11 00:21:17;;;;;;;4.03;3.72;;;;;;;;;;4974598;28;20051;-86
2023/05/11 00:23:48;;;;;;;6.97;3.70;;;;;;;;;;4973352;28;20043;-86
2023/05/11 00:26:15;;;;;;;3.50;3.17;;;;;;;;;;4974301;28;20051;-86
2023/05/11 00:28:44;;;;;;;4.93;3.10;;;;;;;;;;4974559;28;20133;-86
2023/05/11 00:31:11;;;;;;;3.72;3.42;;;;;;;;;;4973602;28;20055;-86
2023/05/11 00:33:38;;;;;;;4.22;3.83;;;;;;;;;;4974363;28;20106;-86
2023/05/11 00:36:06;;;;;;;7.90;3.80;;;;;;;;;;4973298;28;20073;-87
2023/05/11 00:38:35;;;;;;;3.45;3.15;;;;;;;;;;4974219;28;20047;-86
2023/05/11 00:41:02;;;;;;;2.85;2.63;;;;;;;;;;4977258;28;20279;-87
2023/05/11 00:43:30;;;;;;;3.80;3.15;;;;;;;;;;4977136;28;20061;-86
2023/05/11 00:45:57;;;;;;;3.67;3.20;;;;;;;;;;4978155;28;20051;-86
2023/05/11 00:48:24;;;;;;;4.13;3.28;;;;;;;;;;4977098;28;20057;-86
2023/05/11 00:50:51;;;;;;;4.38;3.92;;;;;;;;;;4977933;28;20059;-86
2023/05/11 00:53:18;;;;;;;3.28;2.97;;;;;;;;;;4978057;28;20531;-86
2023/05/11 00:55:46;;;;;;;4.18;3.38;;;;;;;;;;4977991;28;20047;-86
2023/05/11 00:58:15;;;;;;;4.40;3.47;;;;;;;;;;4977091;28;20147;-86
2023/05/11 01:00:43;;;;;;;3.50;3.00;;;;;;;;;;4988913;28;20055;-86
2023/05/11 01:03:12;;;;;;;3.50;3.20;;;;;;;;;;4980249;28;20051;-86
2023/05/11 01:05:59;;;;;;;4.05;3.25;;;;;;;;;;4996936;28;20051;-86
2023/05/11 01:08:31;;;;;;;4.75;3.25;;;;;;;;;;4984294;28;20141;-86
2023/05/11 01:11:06;;;;;;;3.47;3.17;;;;;;;;;;4979985;28;20057;-86
2023/05/11 01:13:37;;;;;;;4.65;3.30;;;;;;;;;;4980092;28;20059;-86
2023/05/11 01:16:11;;;;;;;3.85;3.55;;;;;;;;;;4997152;28;20042;-86
2023/05/11 01:18:39;;;;;;;3.70;3.50;;;;;;;;;;4996866;28;20073;-86
2023/05/11 01:21:08;;;;;;;3.50;3.30;;;;;;;;;;4980619;28;20553;-86
2023/05/11 01:23:43;;;;;;;3.80;3.50;;;;;;;;;;4980027;28;20414;-86
2023/05/11 01:26:20;;;;;;;3.70;3.47;;;;;;;;;;4979815;28;20050;-86
2023/05/11 01:28:58;;;;;;;3.38;3.08;;;;;;;;;;4979679;28;20061;-86
2023/05/11 01:31:29;;;;;;;3.83;3.15;;;;;;;;;;4979840;28;20081;-86
2023/05/11 01:34:17;;;;;;;5.00;3.35;;;;;;;;;;4979793;28;20050;-86
2023/05/11 01:36:53;;;;;;;3.75;3.45;;;;;;;;;;4996755;28;20163;-86
2023/05/11 01:39:23;;;;;;;3.50;3.20;;;;;;;;;;4996725;28;20108;-86
2023/05/11 01:41:51;;;;;;;3.47;3.28;;;;;;;;;;4996918;28;20407;-86
2023/05/11 01:44:20;;;;;;;4.13;3.65;;;;;;;;;;4996462;28;20046;-85
2023/05/11 01:46:48;;;;;;;3.53;3.22;;;;;;;;;;4978996;28;20058;-86
2023/05/11 01:49:15;;;;;;;4.03;3.50;;;;;;;;;;4978738;28;20510;-86
2023/05/11 01:51:43;;;;;;;4.28;3.92;;;;;;;;;;4979124;28;20052;-86
2023/05/11 01:54:11;;;;;;;4.05;3.65;;;;;;;;;;4996349;28;20047;-85
2023/05/11 01:56:42;;;;;;;5.18;4.70;;;;;;;;;;4996221;28;20514;-85
2023/05/11 01:59:11;;;;;;;4.82;3.70;;;;;;;;;;4979157;28;20438;-86
2023/05/11 02:01:39;;;;;;;5.97;3.88;;;;;;;;;;4978538;28;20141;-85
2023/05/11 02:04:06;;;;;;;10.48;3.92;;;;;;;;;;4978953;28;20077;-86
2023/05/11 02:06:34;;;;;;;4.90;4.50;;;;;;;;;;4995516;28;20053;-85
2023/05/11 02:09:02;;;;;;;4.75;4.25;;;;;;;;;;4995953;28;20056;-85
2023/05/11 02:11:30;;;;;;;5.50;4.90;;;;;;;;;;4995580;28;20051;-85
2023/05/11 02:13:58;;;;;;;4.72;4.30;;;;;;;;;;4978670;28;20046;-86
2023/05/11 02:16:27;;;;;;;5.25;4.55;;;;;;;;;;4995454;28;20046;-86
2023/05/11 02:18:55;;;;;;;5.90;5.38;;;;;;;;;;4978463;28;20442;-86
2023/05/11 02:21:23;;;;;;;5.07;4.57;;;;;;;;;;4978466;28;20046;-86
2023/05/11 02:23:51;;;;;;;5.80;4.72;;;;;;;;;;4995389;28;20054;-86
2023/05/11 02:26:18;;;;;;;5.35;4.85;;;;;;;;;;4978302;28;20356;-86
2023/05/11 02:28:46;;;;;;;6.18;5.07;;;;;;;;;;4978105;28;20046;-85
2023/05/11 02:31:18;;;;;;;5.85;5.18;;;;;;;;;;4978252;28;20050;-85
2023/05/11 02:33:48;;;;;;;6.30;5.40;;;;;;;;;;4995341;28;20053;-85
2023/05/11 02:36:20;;;;;;;9.68;4.85;;;;;;;;;;4978781;28;20483;-85
2023/05/11 02:38:48;;;;;;;4.35;3.95;;;;;;;;;;4978312;28;20455;-85
2023/05/11 02:41:17;;;;;;;4.80;4.40;;;;;;;;;;4995234;28;20411;-86
2023/05/11 02:43:47;;;;;;;4.60;3.80;;;;;;;;;;4978004;28;20507;-86
2023/05/11 02:46:15;;;;;;;5.60;4.35;;;;;;;;;;4995084;28;20054;-86
2023/05/11 02:48:44;;;;;;;4.32;3.97;;;;;;;;;;4977932;28;20050;-85
2023/05/11 02:51:13;;;;;;;5.28;4.78;;;;;;;;;;4977984;28;20582;-86
2023/05/11 02:53:41;;;;;;;5.13;4.70;;;;;;;;;;4977951;28;20132;-86
2023/05/11 02:56:08;;;;;;;4.75;4.35;;;;;;;;;;4977798;28;20054;-86
2023/05/11 02:58:36;;;;;;;7.57;5.05;;;;;;;;;;4978057;28;20056;-86
2023/05/11 03:01:06;;;;;;;4.72;4.32;;;;;;;;;;4977005;28;20058;-85
2023/05/11 03:03:34;;;;;;;4.82;4.28;;;;;;;;;;4977635;28;20334;-86
2023/05/11 03:06:01;;;;;;;4.72;4.30;;;;;;;;;;4994027;28;20078;-85
2023/05/11 03:08:28;;;;;;;5.30;4.68;;;;;;;;;;4977563;28;20050;-86
2023/05/11 03:10:57;;;;;;;5.22;4.38;;;;;;;;;;4977541;28;20056;-85
2023/05/11 03:13:25;;;;;;;6.50;4.97;;;;;;;;;;4977434;28;20050;-85
2023/05/11 03:15:53;;;;;;;4.60;4.30;;;;;;;;;;4977163;28;20050;-85
2023/05/11 03:18:20;;;;;;;4.80;4.35;;;;;;;;;;4994452;28;20086;-86
2023/05/11 03:20:50;;;;;;;4.80;4.40;;;;;;;;;;4977187;28;20050;-86
2023/05/11 03:23:18;;;;;;;7.03;4.57;;;;;;;;;;4977158;28;20053;-86
2023/05/11 03:25:45;;;;;;;7.47;6.28;;;;;;;;;;4977239;28;20050;-86
2023/05/11 03:28:13;;;;;;;9.10;6.93;;;;;;;;;;4977376;28;20050;-86
2023/05/11 03:30:42;;;;;;;6.55;4.82;;;;;;;;;;4977244;28;20053;-86
2023/05/11 03:33:09;;;;;;;4.28;3.97;;;;;;;;;;4994454;28;20053;-86
2023/05/11 03:35:37;;;;;;;5.25;4.13;;;;;;;;;;4994032;28;20046;-86
2023/05/11 03:38:05;;;;;;;4.40;4.10;;;;;;;;;;4994296;28;20054;-86
2023/05/11 03:40:33;;;;;;;4.50;4.10;;;;;;;;;;4977181;28;20434;-85
2023/05/11 03:43:02;;;;;;;6.82;5.38;;;;;;;;;;4977056;28;20048;-85
2023/05/11 03:45:31;;;;;;;6.68;5.30;;;;;;;;;;4976950;28;20089;-86
2023/05/11 03:47:59;;;;;;;5.82;4.95;;;;;;;;;;4976727;28;20470;-85
2023/05/11 03:50:27;;;;;;;8.57;6.43;;;;;;;;;;4977138;28;20050;-86
2023/05/11 03:52:54;;;;;;;9.52;6.93;;;;;;;;;;4977544;28;20054;-87
2023/05/11 03:55:22;;;;;;;9.35;6.70;;;;;;;;;;4976493;28;20077;-86
2023/05/11 03:57:49;;;;;;;9.25;6.10;;;;;;;;;;4977114;28;20422;-86
2023/05/11 04:00:17;;;;;;;6.82;6.13;;;;;;;;;;4993652;28;20085;-86
2023/05/11 04:02:44;;;;;;;7.10;6.15;;;;;;;;;;4976998;28;20050;-86
2023/05/11 04:05:12;;;;;;;6.80;5.55;;;;;;;;;;4993840;28;20478;-86
2023/05/11 04:07:40;;;;;;;8.07;6.38;;;;;;;;;;4976699;28;20086;-86
2023/05/11 04:10:07;;;;;;;15.15;9.75;;;;;;;;;;4993859;28;20082;-86
2023/05/11 04:12:34;;;;;;;13.70;10.23;;;;;;;;;;4976798;28;20061;-86
2023/05/11 04:15:02;;;;;;;17.90;11.35;;;;;;;;;;4993533;28;20042;-86
2023/05/11 04:17:29;;;;;;;13.75;9.18;;;;;;;;;;4993877;28;20050;-86
2023/05/11 04:19:57;;;;;;;8.65;7.53;;;;;;;;;;4993724;28;20050;-86
2023/05/11 04:22:24;;;;;;;9.27;6.57;;;;;;;;;;4976860;28;20054;-86
2023/05/11 04:24:51;;;;;;;6.50;5.90;;;;;;;;;;4993531;28;20054;-87
2023/05/11 04:27:18;;;;;;;6.57;5.63;;;;;;;;;;4976493;28;20080;-87
2023/05/11 04:29:47;;;;;;;6.43;5.75;;;;;;;;;;4976377;28;20428;-87
2023/05/11 04:32:15;;;;;;;6.10;5.60;;;;;;;;;;4976614;28;20345;-86
2023/05/11 04:34:42;;;;;;;5.97;5.38;;;;;;;;;;4976820;28;20054;-87
2023/05/11 04:37:10;;;;;;;6.55;5.78;;;;;;;;;;4977018;28;20558;-87
2023/05/11 04:39:37;;;;;;;5.95;5.45;;;;;;;;;;4976550;28;20049;-87
2023/05/11 04:42:04;;;;;;;7.93;5.63;;;;;;;;;;4976317;28;20108;-86
2023/05/11 04:44:31;;;;;;;12.82;10.20;;;;;;;;;;4976559;28;20066;-87
2023/05/11 04:46:59;;;;;;;9.27;8.20;;;;;;;;;;4976517;28;20054;-86
2023/05/11 04:49:26;;;;;;;6.35;5.75;;;;;;;;;;4976665;28;20054;-87
2023/05/11 04:51:53;;;;;;;5.07;4.40;;;;;;;;;;4993474;28;20129;-87
2023/05/11 04:54:23;;;;;;;4.75;4.20;;;;;;;;;;4993539;28;20061;-87
2023/05/11 04:56:51;;;;;;;4.70;4.25;;;;;;;;;;4976035;28;20084;-86
2023/05/11 04:59:18;;;;;;;7.38;4.15;;;;;;;;;;4976580;28;20050;-87
2023/05/11 05:01:45;;;;;;;4.82;4.35;;;;;;;;;;4975026;28;20054;-87
2023/05/11 05:04:12;;;;;;;5.70;4.10;;;;;;;;;;4976433;28;20482;-87
2023/05/11 05:06:40;;;;;;;4.95;4.22;;;;;;;;;;4976598;28;20047;-86
2023/05/11 05:09:07;;;;;;;5.03;4.50;;;;;;;;;;4977720;28;20062;-87
2023/05/11 05:11:35;;;;;;;4.50;4.20;;;;;;;;;;4976299;28;20077;-87
2023/05/11 05:14:02;;;;;;;4.10;3.80;;;;;;;;;;4976499;28;20134;-86
2023/05/11 05:16:29;;;;;;;4.68;4.28;;;;;;;;;;4976255;28;20043;-87
2023/05/11 05:18:59;;;;;;;3.60;3.40;;;;;;;;;;4993505;28;20092;-87
2023/05/11 05:21:26;;;;;;;3.60;3.30;;;;;;;;;;4993383;28;20157;-87
2023/05/11 05:23:53;;;;;;;3.00;2.80;;;;;;;;;;4976069;28;20046;-85
2023/05/11 05:26:20;;;;;;;3.70;3.40;;;;;;;;;;4996572;28;20058;-87
2023/05/11 05:28:47;;;;;;;3.35;3.15;;;;;;;;;;4979462;28;20061;-88
2023/05/11 05:31:15;;;;;;;4.00;3.70;;;;;;;;;;4979680;28;20042;-87
2023/05/11 05:33:42;;;;;;;5.72;5.32;;;;;;;;;;4996801;28;20141;-87
2023/05/11 05:36:09;;;;;;;5.30;4.85;;;;;;;;;;4979196;28;20074;-88
2023/05/11 05:38:36;;;;;;;5.50;5.10;;;;;;;;;;4979293;28;20046;-87
2023/05/11 05:41:04;;;;;;;4.13;3.85;;;;;;;;;;4979393;28;20051;-87
2023/05/11 05:43:31;;;;;;;4.75;4.35;;;;;;;;;;4979501;28;20046;-87
2023/05/11 05:45:58;;;;;;;4.15;3.95;;;;;;;;;;4979302;28;20061;-87
2023/05/11 05:48:26;;;;;;;6.20;5.65;;;;;;;;;;4979136;28;20133;-86
2023/05/11 05:50:53;;;;;;;3.85;3.55;;;;;;;;;;4979130;28;20053;-87
2023/05/11 05:53:20;;;;;;;2.30;2.20;;;;;;;;;;4979046;28;20054;-86
2023/05/11 05:55:49;;;;;;;2.10;2.00;;;;;;;;;;4979461;28;20101;-86
2023/05/11 05:58:17;;;;;;;2.10;2.00;;;;;;;;;;4995892;28;20411;-86
2023/05/11 06:00:44;;;;;;;2.25;2.15;;;;;;;;;;4996014;28;20051;-86
2023/05/11 06:03:11;;;;;;;3.78;2.63;;;;;;;;;;4979184;28;20451;-86
2023/05/11 06:05:38;;;;;;;2.33;2.22;;;;;;;;;;4995826;28;20050;-85
2023/05/11 06:08:06;;;;;;;3.28;2.97;;;;;;;;;;4995757;28;20058;-86
2023/05/11 06:10:37;;;;;;;3.50;3.20;;;;;;;;;;4979870;28;20050;-86
2023/05/11 06:13:05;;;;;;;2.92;2.80;;;;;;;;;;4996016;28;20050;-86
2023/05/11 06:15:32;;;;;;;3.80;2.75;;;;;;;;;;4978599;28;20502;-86
2023/05/11 06:18:00;;;;;;;2.85;2.75;;;;;;;;;;4978733;28;20046;-86
2023/05/11 06:20:27;;;;;;;2.92;2.72;;;;;;;;;;4995673;28;20046;-86
2023/05/11 06:22:54;;;;;;;14.52;12.43;;;;;;;;;;4995865;28;20053;-86
2023/05/11 06:25:22;;;;;;;4.60;4.25;;;;;;;;;;4979784;28;20438;-86
2023/05/11 06:27:49;;;;;;;8.63;5.95;;;;;;;;;;4978607;28;20050;-85
2023/05/11 06:30:16;;;;;;;11.20;6.82;;;;;;;;;;4977919;28;20046;-85
2023/05/11 06:32:44;;;;;;;8.38;5.22;;;;;;;;;;4978201;28;20062;-86
2023/05/11 06:35:11;;;;;;;6.75;6.07;;;;;;;;;;4978306;28;20051;-85
2023/05/11 06:37:38;;;;;;;11.90;10.25;;;;;;;;;;4977349;28;20050;-86
2023/05/11 06:40:06;;;;;;;4.07;3.78;;;;;;;;;;4995607;28;20050;-86
2023/05/11 06:42:33;;;;;;;4.95;4.05;;;;;;;;;;4995464;28;20054;-86
2023/05/11 06:45:01;;;;;;;5.85;4.18;;;;;;;;;;4995173;28;20510;-85
2023/05/11 06:47:28;;;;;;;5.60;5.10;;;;;;;;;;4977897;28;20054;-85
2023/05/11 06:49:55;;;;;;;6.00;5.32;;;;;;;;;;4978110;28;20407;-85
2023/05/11 06:52:23;;;;;;;6.30;5.70;;;;;;;;;;4977878;28;20500;-86
2023/05/11 06:54:50;;;;;;;10.10;7.43;;;;;;;;;;4994786;28;20043;-85
2023/05/11 06:57:17;;;;;;;7.43;6.40;;;;;;;;;;4994733;28;20046;-85
2023/05/11 06:59:44;;;;;;;10.30;6.60;;;;;;;;;;4977184;28;20065;-85
2023/05/11 07:02:11;;;;;;;9.25;7.22;;;;;;;;;;4994759;28;20046;-85
2023/05/11 07:04:39;;;;;;;15.13;11.40;;;;;;;;;;4994324;28;20318;-84
2023/05/11 07:07:06;;;;;;;4.95;4.55;;;;;;;;;;4977613;28;20123;-85
2023/05/11 07:09:33;;;;;;;8.60;7.82;;;;;;;;;;4994547;28;20077;-85
2023/05/11 07:12:01;;;;;;;11.48;9.65;;;;;;;;;;4976939;28;20053;-85
2023/05/11 07:14:29;;;;;;;4.30;3.90;;;;;;;;;;4976983;28;20092;-84
2023/05/11 07:16:56;;;;;;;3.50;3.20;;;;;;;;;;4976681;28;20530;-85
2023/05/11 07:19:23;;;;;;;10.57;9.48;;;;;;;;;;4977414;28;20112;-85
2023/05/11 07:21:51;;;;;;;14.65;12.95;;;;;;;;;;4976738;28;20058;-84
2023/05/11 07:24:18;;;;;;;8.18;7.32;;;;;;;;;;4976847;28;20511;-84
2023/05/11 07:26:45;;;;;;;6.78;6.18;;;;;;;;;;4975808;28;20081;-84
2023/05/11 07:29:12;;;;;;;4.22;3.92;;;;;;;;;;4993815;28;20060;-84
2023/05/11 07:31:41;;;;;;;6.05;5.57;;;;;;;;;;4994059;28;20046;-84
2023/05/11 07:34:09;;;;;;;9.98;8.93;;;;;;;;;;4976821;28;20054;-84
2023/05/11 07:36:36;;;;;;;6.15;5.65;;;;;;;;;;4976565;28;20064;-84
2023/05/11 07:39:03;;;;;;;4.60;4.25;;;;;;;;;;4993716;28;20121;-84
2023/05/11 07:41:30;;;;;;;17.75;13.32;;;;;;;;;;4993942;28;20061;-84
2023/05/11 07:44:00;;;;;;;5.57;5.03;;;;;;;;;;4976504;28;20052;-84
2023/05/11 07:46:27;;;;;;;2.55;2.45;;;;;;;;;;4976321;28;20050;-84
2023/05/11 07:48:55;;;;;;;2.35;2.25;;;;;;;;;;4993055;28;20057;-83
2023/05/11 07:51:41;;;;;;;7.78;5.40;;;;;;;;;;4978671;28;20057;-84
2023/05/11 07:54:08;;;;;;;13.02;11.10;;;;;;;;;;4976182;28;20046;-84
2023/05/11 07:56:35;;;;;;;3.60;2.47;;;;;;;;;;4976300;28;20402;-83
2023/05/11 07:59:03;;;;;;;2.83;2.72;;;;;;;;;;4976277;28;20138;-83
2023/05/11 08:01:31;;;;;;;2.83;2.72;;;;;;;;;;4993041;28;20054;-84
2023/05/11 08:03:59;;;;;;;3.33;3.05;;;;;;;;;;4975976;28;20042;-84
2023/05/11 08:06:26;;;;;;;3.28;3.05;;;;;;;;;;4993026;28;20561;-83
2023/05/11 08:08:53;;;;;;;4.65;4.25;;;;;;;;;;4975935;28;20046;-83
2023/05/11 08:11:21;;;;;;;7.25;6.55;;;;;;;;;;4976135;28;20053;-83
2023/05/11 08:13:48;;;;;;;2.25;2.15;;;;;;;;;;4975810;28;20125;-83
2023/05/11 08:16:15;;;;;;;3.00;1.90;;;;;;;;;;4975819;28;20468;-84
2023/05/11 08:18:43;;;;;;;6.70;5.93;;;;;;;;;;4992887;28;20047;-84
2023/05/11 08:21:10;;;;;;;3.55;3.25;;;;;;;;;;4975796;28;20049;-84
2023/05/11 08:23:37;;;;;;;2.00;1.90;;;;;;;;;;4975695;28;20462;-84
2023/05/11 08:26:04;;;;;;;11.25;7.38;;;;;;;;;;4975779;28;20046;-84
2023/05/11 08:28:32;;;;;;;27.40;17.50;;;;;;;;;;4975988;28;20050;-84
2023/05/11 08:31:00;;;;;;;35.92;21.98;;;;;;;;;;4975738;28;20043;-84
2023/05/11 08:33:27;;;;;;;3.90;3.47;;;;;;;;;;4975607;28;20520;-84
2023/05/11 08:35:57;;;;;;;41.70;25.95;;;;;;;;;;4976161;28;20053;-84
2023/05/11 08:38:25;;;;;;;2.30;2.20;;;;;;;;;;4992954;28;20061;-84
2023/05/11 08:40:52;;;;;;;2.50;2.33;;;;;;;;;;4975641;28;20517;-84
2023/05/11 08:43:19;;;;;;;18.17;13.57;;;;;;;;;;4992732;28;20495;-84
2023/05/11 08:45:51;;;;;;;3.90;3.53;;;;;;;;;;4975234;28;20051;-84
2023/05/11 08:48:19;;;;;;;4.05;3.58;;;;;;;;;;4975567;28;20426;-83
2023/05/11 08:50:47;;;;;;;9.43;7.68;;;;;;;;;;4975567;28;20057;-84
2023/05/11 08:53:14;;;;;;;3.92;3.63;;;;;;;;;;4975360;28;20065;-84
2023/05/11 08:55:42;;;;;;;1.92;1.83;;;;;;;;;;4975477;28;20050;-83
2023/05/11 08:58:10;;;;;;;2.25;2.10;;;;;;;;;;4975574;28;20054;-84
2023/05/11 09:00:38;;;;;;;6.60;3.80;;;;;;;;;;4994958;28;20054;-84
2023/05/11 09:03:07;;;;;;;1.80;1.70;;;;;;;;;;4979084;28;20058;-84
2023/05/11 09:05:35;;;;;;;2.28;2.08;;;;;;;;;;4978719;28;20491;-84
2023/05/11 09:08:03;;;;;;;1.85;1.65;;;;;;;;;;4978989;28;20495;-84
2023/05/11 09:10:31;;;;;;;2.55;1.85;;;;;;;;;;4978937;28;20054;-84
2023/05/11 09:12:58;;;;;;;1.63;1.63;;;;;;;;;;4996088;28;20137;-84
2023/05/11 09:15:25;;;;;;;2.00;1.80;;;;;;;;;;4995966;28;20050;-84
2023/05/11 09:17:52;;;;;;;2.58;1.48;;;;;;;;;;4996406;28;20061;-84
2023/05/11 09:20:30;;;;;;;1.95;1.70;;;;;;;;;;4979080;28;20142;-84
2023/05/11 09:22:58;;;;;;;2.00;1.90;;;;;;;;;;4978879;28;20105;-84
2023/05/11 09:25:26;;;;;;;1.95;1.85;;;;;;;;;;4978367;28;20050;-85
2023/05/11 09:27:53;;;;;;;1.73;1.70;;;;;;;;;;4995758;28;20050;-84
2023/05/11 09:30:21;;;;;;;2.00;1.65;;;;;;;;;;4995906;28;20065;-84
2023/05/11 09:32:51;;;;;;;2.28;2.17;;;;;;;;;;4995184;28;20053;-84
2023/05/11 09:35:22;;;;;;;2.00;1.90;;;;;;;;;;4994129;28;20054;-84
2023/05/11 09:37:59;;;;;;;2.78;1.58;;;;;;;;;;4995685;28;20057;-85
2023/05/11 09:40:27;;;;;;;1.55;1.45;;;;;;;;;;4978249;28;20472;-83
2023/05/11 09:43:00;;;;;;;3.13;2.03;;;;;;;;;;4979634;28;20058;-84
2023/05/11 09:45:36;;;;;;;1.33;1.30;;;;;;;;;;4978225;28;20053;-84
2023/05/11 09:48:04;;;;;;;2.05;1.40;;;;;;;;;;4995645;28;20134;-84
2023/05/11 09:50:32;;;;;;;1.77;1.67;;;;;;;;;;4978191;28;20057;-83
2023/05/11 09:53:00;;;;;;;3.75;1.80;;;;;;;;;;4978275;28;20061;-83
2023/05/11 09:55:28;;;;;;;1.48;1.38;;;;;;;;;;4995695;28;20054;-84
2023/05/11 09:57:57;;;;;;;1.83;1.73;;;;;;;;;;4978249;28;20058;-84
2023/05/11 10:00:24;;;;;;;2.53;1.58;;;;;;;;;;4977828;28;20138;-84
2023/05/11 10:03:04;;;;;;;5.97;1.52;;;;;;;;;;4994995;28;20054;-84
2023/05/11 10:05:33;;;;;;;6.90;1.90;;;;;;;;;;4995278;28;20058;-84
2023/05/11 10:08:01;;;;;;;1.13;1.13;;;;;;;;;;4977813;28;20054;-83
2023/05/11 10:10:29;;;;;;;7.55;1.50;;;;;;;;;;4977928;28;20081;-83
2023/05/11 10:12:58;;;;;;;3.00;1.60;;;;;;;;;;4996290;28;20074;-83
2023/05/11 10:15:27;;;;;;;3.75;1.60;;;;;;;;;;4994862;28;20090;-84
2023/05/11 10:17:55;;;;;;;1.85;1.38;;;;;;;;;;4994710;28;20058;-83
2023/05/11 10:20:24;;;;;;;4.55;1.80;;;;;;;;;;4994597;28;20046;-83
2023/05/11 10:22:52;;;;;;;1.63;1.52;;;;;;;;;;4977725;28;20058;-83
2023/05/11 10:25:22;;;;;;;1.70;1.60;;;;;;;;;;4994958;28;20069;-83
2023/05/11 10:27:49;;;;;;;1.90;1.80;;;;;;;;;;4995022;28;20403;-83
2023/05/11 10:30:17;;;;;;;1.70;1.63;;;;;;;;;;4977572;28;20058;-83
2023/05/11 10:32:46;;;;;;;2.45;1.77;;;;;;;;;;4977664;28;20050;-83
2023/05/11 10:35:13;;;;;;;2.30;2.03;;;;;;;;;;4977321;28;20096;-83
2023/05/11 10:37:42;;;;;;;1.80;1.70;;;;;;;;;;4977324;28;20042;-83
2023/05/11 10:40:10;;;;;;;1.65;1.55;;;;;;;;;;4994786;28;20046;-83
2023/05/11 10:42:49;;;;;;;1.38;1.27;;;;;;;;;;4994629;28;20073;-83
2023/05/11 10:45:20;;;;;;;1.02;1.02;;;;;;;;;;4977305;28;20046;-83
2023/05/11 10:48:02;;;;;;;1.90;0.80;;;;;;;;;;4977511;28;20121;-83
2023/05/11 10:50:47;;;;;;;1.23;1.10;;;;;;;;;;4994100;28;20050;-83
2023/05/11 10:53:33;;;;;;;2.35;1.15;;;;;;;;;;4977014;28;20145;-83
2023/05/11 10:56:11;;;;;;;3.55;1.60;;;;;;;;;;4994113;28;20101;-83
2023/05/11 10:59:05;;;;;;;2.85;1.23;;;;;;;;;;4977049;28;20046;-83
2023/05/11 11:01:32;;;;;;;;;;;;;;;;;;4972294;28;20521;-83
2023/05/11 11:04:01;;;;;;;1.20;1.20;;;;;;;;;;4974892;28;19922;-83
2023/05/11 11:06:29;;;;;;;3.42;1.83;;;;;;;;;;4974672;28;20514;-83
2023/05/11 11:09:00;;;;;;;2.30;2.10;;;;;;;;;;4974866;28;20059;-83
2023/05/11 11:11:28;;;;;;;3.45;1.40;;;;;;;;;;4974473;28;20057;-83
2023/05/11 11:13:56;;;;;;;2.60;1.30;;;;;;;;;;4973166;28;20047;-83
2023/05/11 11:16:24;;;;;;;1.33;1.30;;;;;;;;;;4973342;28;20419;-83
2023/05/11 11:18:52;;;;;;;3.65;1.20;;;;;;;;;;4974657;28;20047;-83
2023/05/11 11:21:39;;;;;;;1.70;1.00;;;;;;;;;;4973736;28;20148;-83
2023/05/11 11:24:06;;;;;;;1.17;1.15;;;;;;;;;;4973864;28;20129;-83
2023/05/11 11:26:46;;;;;;;4.50;4.10;;;;;;;;;;4973905;28;20054;-83
2023/05/11 11:29:14;;;;;;;2.35;1.80;;;;;;;;;;4974233;28;20411;-83
2023/05/11 11:31:41;;;;;;;2.67;2.25;;;;;;;;;;4972732;28;20519;-83
2023/05/11 11:34:38;;;;;;;5.35;4.88;;;;;;;;;;4973057;28;20051;-83
2023/05/11 11:37:07;;;;;;;3.15;2.97;;;;;;;;;;4961245;28;20342;-83
2023/05/11 11:39:40;;;;;;;11.52;8.88;;;;;;;;;;4973981;28;20152;-83
2023/05/11 11:42:09;;;;;;;9.77;7.55;;;;;;;;;;4974198;28;20046;-83
2023/05/11 11:44:36;;;;;;;2.22;1.50;;;;;;;;;;4972637;28;20507;-83
2023/05/11 11:47:20;;;;;;;3.60;0.90;;;;;;;;;;4973971;28;20050;-82
2023/05/11 11:49:47;;;;;;;7.75;6.35;;;;;;;;;;4972585;28;20411;-83
2023/05/11 11:52:32;;;;;;;3.10;2.90;;;;;;;;;;4974051;28;20049;-83
2023/05/11 11:55:00;;;;;;;13.75;8.20;;;;;;;;;;4973881;28;20055;-83
2023/05/11 11:57:31;;;;;;;3.50;3.13;;;;;;;;;;4972481;28;20618;-83
2023/05/11 11:59:59;;;;;;;0.80;0.80;;;;;;;;;;4978874;28;20057;-83
2023/05/11 12:02:26;;;;;;;3.25;2.10;;;;;;;;;;4993191;28;20054;-83
2023/05/11 12:04:57;;;;;;;2.30;2.15;;;;;;;;;;4993353;28;20054;-83
2023/05/11 12:07:25;;;;;;;3.53;1.55;;;;;;;;;;4993178;28;20061;-82
2023/05/11 12:09:53;;;;;;;22.88;20.30;;;;;;;;;;4992788;28;20085;-82
2023/05/11 12:12:20;;;;;;;40.60;24.35;;;;;;;;;;4975847;28;20058;-84
2023/05/11 12:14:48;;;;;;;91.75;47.28;;;;;;;;;;4978092;28;20069;-85
2023/05/11 12:17:23;;;;;;;172.25;105.43;;;;;;;;;;4976506;28;20054;-86
2023/05/11 12:19:50;;;;;;;28.67;14.60;;;;;;;;;;4976980;28;20058;-86
2023/05/11 12:22:21;;;;;;;11.75;6.93;;;;;;;;;;4993758;28;20466;-86
2023/05/11 12:24:50;;;;;;;5.40;3.33;;;;;;;;;;4976640;28;20105;-86
2023/05/11 12:27:18;;;;;;;4.15;2.47;;;;;;;;;;4977160;28;20418;-87
2023/05/11 12:29:52;;;;;;;6.80;2.70;;;;;;;;;;4976522;28;20050;-86
2023/05/11 12:32:26;;;;;;;4.20;2.28;;;;;;;;;;4977050;28;20089;-86
2023/05/11 12:34:58;;;;;;;6.30;1.80;;;;;;;;;;4979489;28;20484;-85
2023/05/11 12:37:25;;;;;;;2.30;2.10;;;;;;;;;;4980325;28;20129;-86
2023/05/11 12:39:54;;;;;;;5.15;2.00;;;;;;;;;;4980905;28;20054;-84
2023/05/11 12:42:21;;;;;;;3.15;1.77;;;;;;;;;;4981769;28;20055;-85
2023/05/11 12:44:49;;;;;;;3.15;2.08;;;;;;;;;;4981177;28;20054;-85
2023/05/11 12:47:16;;;;;;;3.30;2.00;;;;;;;;;;4980405;28;20507;-85
2023/05/11 12:49:44;;;;;;;1.60;1.50;;;;;;;;;;4980458;28;20061;-85
2023/05/11 12:52:12;;;;;;;1.90;1.55;;;;;;;;;;4998431;28;20069;-87
2023/05/11 12:54:42;;;;;;;1.85;1.75;;;;;;;;;;4981038;28;20493;-86
2023/05/11 12:57:26;;;;;;;2.85;1.67;;;;;;;;;;4982214;28;20171;-86
2023/05/11 13:00:06;;;;;;;1.40;1.30;;;;;;;;;;4978227;28;20062;-86
2023/05/11 13:02:34;;;;;;;2.38;1.50;;;;;;;;;;4977329;28;20094;-86
2023/05/11 13:05:11;;;;;;;1.98;1.50;;;;;;;;;;4976770;28;20134;-86
2023/05/11 13:07:39;;;;;;;2.95;1.90;;;;;;;;;;4976884;28;20127;-86
2023/05/11 13:10:06;;;;;;;1.52;1.45;;;;;;;;;;4977758;28;20069;-86
2023/05/11 13:12:34;;;;;;;1.70;1.60;;;;;;;;;;4977923;28;20121;-86
2023/05/11 13:15:05;;;;;;;2.38;1.58;;;;;;;;;;4976369;28;20412;-85
2023/05/11 13:17:34;;;;;;;1.50;1.27;;;;;;;;;;4976277;28;20102;-85
2023/05/11 13:20:16;;;;;;;4.10;1.50;;;;;;;;;;4976102;28;20491;-85
2023/05/11 13:22:44;;;;;;;3.28;1.83;;;;;;;;;;4976654;28;20173;-86
2023/05/11 13:25:12;;;;;;;4.85;2.72;;;;;;;;;;4976717;28;20061;-87
2023/05/11 13:27:39;;;;;;;8.23;2.95;;;;;;;;;;4977884;28;20159;-90
2023/05/11 13:30:06;;;;;;;3.15;2.47;;;;;;;;;;4977524;28;20062;-88
2023/05/11 13:32:35;;;;;;;6.10;2.50;;;;;;;;;;4977229;28;20047;-87
2023/05/11 13:35:03;;;;;;;3.13;2.45;;;;;;;;;;4978216;28;20110;-88
2023/05/11 13:37:31;;;;;;;3.67;2.10;;;;;;;;;;4977303;28;20072;-91
2023/05/11 13:39:58;;;;;;;4.22;3.00;;;;;;;;;;4977574;28;20527;-89
2023/05/11 13:42:25;;;;;;;3.67;2.67;;;;;;;;;;4976876;28;20055;-87
2023/05/11 13:44:53;;;;;;;4.28;2.90;;;;;;;;;;4976300;28;20054;-88
2023/05/11 13:47:20;;;;;;;4.72;3.03;;;;;;;;;;4977267;28;20055;-87
2023/05/11 13:49:47;;;;;;;2.92;2.55;;;;;;;;;;4978225;28;20480;-88
2023/05/11 13:52:15;;;;;;;5.75;2.20;;;;;;;;;;4978203;28;20483;-88
2023/05/11 13:54:42;;;;;;;2.47;2.38;;;;;;;;;;4976907;28;20059;-88
2023/05/11 13:57:09;;;;;;;2.00;1.90;;;;;;;;;;4977398;28;20130;-88
2023/05/11 13:59:37;;;;;;;1.80;1.80;;;;;;;;;;4979785;28;20059;-87
2023/05/11 14:02:04;;;;;;;2.00;1.85;;;;;;;;;;4979738;28;20084;-88
2023/05/11 14:04:33;;;;;;;4.20;2.20;;;;;;;;;;4995680;28;20058;-87
2023/05/11 14:07:00;;;;;;;4.32;1.48;;;;;;;;;;4996187;28;20057;-87
2023/05/11 14:09:29;;;;;;;1.33;1.23;;;;;;;;;;4996540;28;20057;-86
2023/05/11 14:11:56;;;;;;;3.22;1.42;;;;;;;;;;4979511;28;20046;-86
2023/05/11 14:14:24;;;;;;;1.50;1.38;;;;;;;;;;4996334;28;20483;-87
2023/05/11 14:16:51;;;;;;;2.97;1.25;;;;;;;;;;4996511;28;20054;-87
2023/05/11 14:19:18;;;;;;;0.98;0.90;;;;;;;;;;4979602;28;20483;-87
2023/05/11 14:21:47;;;;;;;1.38;1.30;;;;;;;;;;4978883;28;20046;-86
2023/05/11 14:24:14;;;;;;;0.90;0.90;;;;;;;;;;4996403;28;20057;-87
2023/05/11 14:26:42;;;;;;;0.82;0.82;;;;;;;;;;4978855;28;20392;-87
2023/05/11 14:29:09;;;;;;;1.05;1.00;;;;;;;;;;4978910;28;20796;-87
2023/05/11 14:31:37;;;;;;;0.70;0.70;;;;;;;;;;4979381;28;20062;-86
2023/05/11 14:34:04;;;;;;;0.63;0.63;;;;;;;;;;4978909;28;20057;-86
2023/05/11 14:36:31;;;;;;;1.55;0.70;;;;;;;;;;4978546;28;20104;-85
2023/05/11 14:38:59;;;;;;;1.90;0.73;;;;;;;;;;4978705;28;20067;-85
2023/05/11 14:41:26;;;;;;;0.70;0.63;;;;;;;;;;4978727;28;20050;-86
2023/05/11 14:43:53;;;;;;;2.33;0.60;;;;;;;;;;4978961;28;20442;-87
2023/05/11 14:46:21;;;;;;;0.70;0.60;;;;;;;;;;4995725;28;20065;-87
2023/05/11 14:48:51;;;;;;;2.92;0.50;;;;;;;;;;4978736;28;20050;-86
2023/05/11 14:51:18;;;;;;;2.35;0.60;;;;;;;;;;4995107;28;20411;-85